Time;durP1;ratioP1;P1;durP2;ratioP2;P2;SDS_P1;SDS_P2;PMS_P1;PMS_P2;Temp;Humidity;BMP_temperature;BMP_pressure;BME280_temperature;BME280_humidity;BME280_pressure;Samples;Min_cycle;Max_cycle;Signal;HPM_P1;HPM_P2
2021/08/15 00:02:11;;;;;;;4.20;2.30;;;;;;;21.24;67.31;93059.78;4982291;28;20045;-93
2021/08/15 00:05:08;;;;;;;3.60;2.33;;;;;;;21.21;67.24;93047.16;4974382;28;20045;-92
2021/08/15 00:07:53;;;;;;;4.57;2.55;;;;;;;21.21;67.46;93049.81;4999382;28;20056;-92
2021/08/15 00:10:43;;;;;;;;;;;;;;;;;;;;;
2021/08/15 00:13:44;;;;;;;;;;;;;;;;;;;;;
2021/08/15 00:16:21;;;;;;;4.07;2.30;;;;;;;21.18;68.40;93055.81;4980415;28;20054;-93
2021/08/15 00:19:27;;;;;;;;;;;;;;;;;;;;;
2021/08/15 00:21:59;;;;;;;3.70;2.22;;;;;;;21.08;68.25;93051.75;4978323;28;20047;-93
2021/08/15 00:25:03;;;;;;;8.73;2.70;;;;;;;21.06;68.33;93048.66;4987735;28;20034;-95
2021/08/15 00:27:43;;;;;;;4.20;2.38;;;;;;;21.09;68.02;93047.19;4964095;28;20038;-92
2021/08/15 00:30:27;;;;;;;4.25;2.50;;;;;;;21.04;67.66;93040.22;4996219;28;20045;-91
2021/08/15 00:33:07;;;;;;;8.57;2.70;;;;;;;21.04;67.52;93034.91;4999390;28;20046;-93
2021/08/15 00:35:48;;;;;;;4.50;2.55;;;;;;;21.03;67.70;93032.56;4980250;28;20081;-92
2021/08/15 00:39:02;;;;;;;4.05;2.13;;;;;;;21.04;67.84;93037.56;4980373;28;20057;-93
2021/08/15 00:41:39;;;;;;;4.25;2.30;;;;;;;21.00;67.93;93032.13;4976837;28;20110;-93
2021/08/15 00:44:20;;;;;;;7.55;2.88;;;;;;;20.92;68.29;93019.75;4992156;28;20042;-92
2021/08/15 00:47:09;;;;;;;4.25;2.88;;;;;;;20.90;68.19;93026.53;4973013;28;20050;-94
2021/08/15 00:50:22;;;;;;;6.88;2.83;;;;;;;20.90;67.99;93029.97;4981416;28;20035;-92
2021/08/15 00:53:29;;;;;;;4.53;2.40;;;;;;;20.84;68.17;93015.34;4980141;28;20488;-93
2021/08/15 00:56:26;;;;;;;5.45;2.75;;;;;;;20.88;68.42;93021.53;4979520;28;20062;-95
2021/08/15 00:59:34;;;;;;;4.53;2.55;;;;;;;20.87;68.87;93019.19;4965181;28;20057;-93
2021/08/15 01:02:35;;;;;;;;;;;;;;;;;;;;;
2021/08/15 01:05:32;;;;;;;5.75;2.60;;;;;;;20.78;69.10;93014.00;4963141;28;20078;-92
2021/08/15 01:08:12;;;;;;;4.72;2.25;;;;;;;20.75;68.92;93017.34;4962236;28;20055;-91
2021/08/15 01:10:54;;;;;;;2.20;1.73;;;;;;;20.71;69.33;93011.16;4983838;28;20053;-92
2021/08/15 01:13:38;;;;;;;;;;;;;;;;;;;;;
2021/08/15 01:16:28;;;;;;;3.85;2.33;;;;;;;20.68;69.50;93011.84;4994756;28;20046;-92
2021/08/15 01:18:59;;;;;;;3.80;2.55;;;;;;;20.63;69.23;93004.09;4981713;28;20053;-92
2021/08/15 01:21:28;;;;;;;4.80;2.40;;;;;;;20.64;69.29;93005.63;4978488;28;20055;-93
2021/08/15 01:24:08;;;;;;;10.25;2.97;;;;;;;20.58;69.59;92997.88;4970209;28;20293;-92
2021/08/15 01:26:50;;;;;;;3.22;2.03;;;;;;;20.56;69.53;92994.78;4981472;28;20479;-92
2021/08/15 01:29:39;;;;;;;2.15;1.50;;;;;;;20.59;69.35;93002.09;4976104;28;20043;-93
2021/08/15 01:32:20;;;;;;;4.30;2.55;;;;;;;20.55;69.42;92993.19;4966619;28;20394;-93
2021/08/15 01:34:50;;;;;;;4.13;2.75;;;;;;;20.57;69.05;92996.31;4979985;28;20074;-93
2021/08/15 01:37:42;;;;;;;;;;;;;;;;;;;;;
2021/08/15 01:41:02;;;;;;;3.43;1.90;;;;;;;20.54;68.84;92988.22;5014031;28;20427;-93
2021/08/15 01:44:01;;;;;;;;;;;;;;;;;;;;;
2021/08/15 01:47:13;;;;;;;4.18;2.22;;;;;;;20.54;68.63;92986.34;4996687;28;20046;-92
2021/08/15 01:50:02;;;;;;;4.28;2.35;;;;;;;20.52;68.67;92977.91;4990590;28;20050;-92
2021/08/15 01:52:39;;;;;;;4.20;2.50;;;;;;;20.50;69.28;92980.13;4966554;28;20045;-93
2021/08/15 01:55:29;;;;;;;4.53;1.92;;;;;;;20.50;69.19;92990.78;4997677;28;20034;-93
2021/08/15 01:58:00;;;;;;;3.58;2.22;;;;;;;20.49;69.50;92988.44;4979260;28;20097;-93
2021/08/15 02:00:34;;;;;;;4.88;2.40;;;;;;;20.46;69.45;92984.56;4979076;28;20129;-93
2021/08/15 02:03:07;;;;;;;3.78;2.40;;;;;;;20.43;69.77;92984.50;4977834;28;20061;-92
2021/08/15 02:05:43;;;;;;;5.43;2.95;;;;;;;20.43;69.83;92989.81;4964579;28;20101;-92
2021/08/15 02:08:21;;;;;;;4.57;2.35;;;;;;;20.37;69.80;92983.94;4980232;28;20136;-92
2021/08/15 02:10:55;;;;;;;4.15;2.85;;;;;;;20.34;69.87;92981.94;4979102;28;20046;-93
2021/08/15 02:13:50;;;;;;;4.00;2.20;;;;;;;20.39;70.35;92995.78;4980290;28;20053;-93
2021/08/15 02:16:28;;;;;;;14.00;2.65;;;;;;;20.30;70.21;92981.06;4976267;28;20050;-93
2021/08/15 02:19:06;;;;;;;3.67;2.17;;;;;;;20.28;70.40;92983.28;4960566;28;20566;-92
2021/08/15 02:21:39;;;;;;;8.45;2.85;;;;;;;20.29;70.33;92984.84;4961482;28;20053;-92
2021/08/15 02:24:12;;;;;;;6.30;2.70;;;;;;;20.26;70.71;92985.50;4979721;28;20053;-92
2021/08/15 02:26:50;;;;;;;4.85;2.45;;;;;;;20.19;71.23;92983.41;4964904;28;20053;-93
2021/08/15 02:29:36;;;;;;;;;;;;;;;;;;;;;
2021/08/15 02:32:18;;;;;;;4.80;2.50;;;;;;;20.18;71.89;92982.63;4980321;28;20052;-92
2021/08/15 02:34:56;;;;;;;5.00;2.20;;;;;;;20.17;71.76;92983.75;4954680;28;20046;-92
2021/08/15 02:37:31;;;;;;;3.85;1.83;;;;;;;20.14;72.15;92968.44;4958192;28;20081;-93
2021/08/15 02:40:27;;;;;;;5.35;3.05;;;;;;;20.10;72.33;92972.09;4977695;28;20040;-93
2021/08/15 02:43:09;;;;;;;3.50;1.92;;;;;;;20.08;72.52;92964.47;4992655;28;20046;-94
2021/08/15 02:45:38;;;;;;;5.43;2.90;;;;;;;20.10;72.27;92972.09;4950628;28;20153;-92
2021/08/15 02:48:42;;;;;;;3.70;2.35;;;;;;;20.11;72.35;92973.66;4982117;28;20391;-93
2021/08/15 02:51:44;;;;;;;8.07;2.55;;;;;;;20.07;72.79;92964.81;4977513;28;20066;-93
2021/08/15 02:54:20;;;;;;;6.50;2.88;;;;;;;20.05;72.71;92957.16;4979478;28;20997;-92
2021/08/15 02:57:11;;;;;;;6.85;3.25;;;;;;;20.04;72.52;92957.47;4980970;28;20058;-93
2021/08/15 02:59:47;;;;;;;6.72;2.22;;;;;;;20.07;72.67;92962.91;4965990;28;20050;-92
2021/08/15 03:05:19;;;;;;;4.68;2.45;;;;;;;20.01;71.85;92953.63;4992775;28;20061;-92
2021/08/15 03:07:55;;;;;;;3.35;2.00;;;;;;;20.01;71.67;92956.28;4981278;28;20052;-92
2021/08/15 03:10:28;;;;;;;3.33;2.10;;;;;;;20.00;71.36;92957.41;4967316;28;20053;-93
2021/08/15 03:13:05;;;;;;;3.35;2.10;;;;;;;20.06;71.01;92966.69;4998443;28;20144;-93
2021/08/15 03:15:50;;;;;;;9.35;3.05;;;;;;;19.99;71.13;92953.16;4988282;28;20044;-92
2021/08/15 03:18:34;;;;;;;2.95;1.85;;;;;;;19.98;71.50;92951.63;4984270;28;20050;-92
2021/08/15 03:21:07;;;;;;;;;;;;;;;20.02;71.54;92960.50;4999331;28;20465;-94
2021/08/15 03:23:58;;;;;;;4.80;2.63;;;;;;;20.01;71.73;92961.59;4982623;28;19964;-94
2021/08/15 03:26:38;;;;;;;7.28;2.50;;;;;;;19.94;72.20;92954.16;4980245;28;20060;-94
2021/08/15 03:29:16;;;;;;;4.35;2.67;;;;;;;20.00;72.17;92957.41;4982925;28;20041;-93
2021/08/15 03:31:55;;;;;;;3.85;2.35;;;;;;;19.99;72.29;92955.06;4983034;28;20077;-93
2021/08/15 03:34:32;;;;;;;3.88;1.95;;;;;;;19.94;72.41;92945.44;4980103;28;20048;-93
2021/08/15 03:36:59;;;;;;;4.38;1.98;;;;;;;19.98;73.03;92950.88;4979414;28;20069;-92
2021/08/15 03:39:55;;;;;;;;;;;;;;;;;;;;;
2021/08/15 03:42:36;;;;;;;3.30;2.08;;;;;;;19.89;73.27;92946.44;4985148;28;20049;-92
2021/08/15 03:45:22;;;;;;;6.55;2.30;;;;;;;19.90;73.49;92949.84;4970473;28;20136;-93
2021/08/15 03:47:55;;;;;;;4.28;2.67;;;;;;;19.86;73.84;92939.13;4983094;28;20103;-92
2021/08/15 03:50:33;;;;;;;5.05;3.47;;;;;;;19.84;74.58;92943.25;4983502;28;20038;-93
2021/08/15 03:53:14;;;;;;;5.93;3.03;;;;;;;19.83;74.39;92942.44;5000523;28;20483;-92
2021/08/15 03:56:18;;;;;;;5.05;2.75;;;;;;;19.78;74.42;92944.56;4982547;28;20042;-92
2021/08/15 03:58:54;;;;;;;5.03;2.75;;;;;;;19.77;74.54;92938.47;5014401;28;20053;-92
2021/08/15 04:01:25;;;;;;;6.10;2.83;;;;;;;19.74;74.33;92933.81;4982203;28;20042;-93
2021/08/15 04:04:00;;;;;;;2.95;1.80;;;;;;;19.73;73.99;92941.00;4975131;28;20045;-92
2021/08/15 04:06:35;;;;;;;7.90;2.22;;;;;;;19.68;73.41;92930.59;4987319;28;20047;-92
2021/08/15 04:09:04;;;;;;;5.05;2.85;;;;;;;19.66;73.63;92927.47;4976431;28;20099;-92
2021/08/15 04:11:41;;;;;;;3.67;2.30;;;;;;;19.69;73.36;92934.03;4976367;28;20101;-92
2021/08/15 04:14:14;;;;;;;2.03;1.40;;;;;;;19.63;73.14;92922.81;4962144;28;20039;-93
2021/08/15 04:17:20;;;;;;;5.97;3.83;;;;;;;19.67;73.35;92929.03;4965486;28;20040;-92
2021/08/15 04:19:51;;;;;;;4.28;2.63;;;;;;;19.61;73.77;92929.56;4939309;28;20390;-93
2021/08/15 04:22:45;;;;;;;7.85;2.80;;;;;;;19.53;73.58;92918.72;4965523;28;20104;-92
2021/08/15 04:25:31;;;;;;;4.28;2.47;;;;;;;19.53;73.18;92923.28;4976282;28;20074;-93
2021/08/15 04:28:09;;;;;;;4.40;2.67;;;;;;;19.58;72.94;92923.03;4961002;28;20141;-92
2021/08/15 04:30:48;;;;;;;3.92;2.30;;;;;;;19.59;73.02;92919.31;4992568;28;20046;-92
2021/08/15 04:33:33;;;;;;;4.27;1.90;;;;;;;19.57;72.70;92913.53;4965446;28;20149;-93
2021/08/15 04:36:08;;;;;;;3.20;1.73;;;;;;;19.58;72.42;92907.13;4972812;28;20138;-93
2021/08/15 04:38:44;;;;;;;3.50;1.80;;;;;;;19.67;72.15;92914.97;4959033;28;20049;-93
2021/08/15 04:41:12;;;;;;;4.18;2.53;;;;;;;19.65;71.73;92915.28;4988821;28;20050;-92
2021/08/15 04:43:47;;;;;;;5.35;2.58;;;;;;;19.66;71.79;92911.56;4992633;28;20074;-94
2021/08/15 04:46:25;;;;;;;5.60;2.85;;;;;;;19.75;71.31;92920.22;4978595;28;20073;-93
2021/08/15 04:49:06;;;;;;;5.18;2.53;;;;;;;19.75;71.04;92920.22;4986393;28;20046;-93
2021/08/15 04:51:39;;;;;;;2.63;1.70;;;;;;;19.80;71.11;92921.88;4991204;28;20058;-92
2021/08/15 04:54:16;;;;;;;3.58;2.10;;;;;;;19.85;70.90;92928.84;4976309;28;20563;-92
2021/08/15 04:56:47;;;;;;;4.45;2.65;;;;;;;19.87;70.70;92930.06;4977816;28;20480;-94
2021/08/15 04:59:25;;;;;;;3.83;2.05;;;;;;;19.93;70.46;92928.72;4978766;28;20054;-92
2021/08/15 05:02:04;;;;;;;2.40;1.77;;;;;;;20.03;70.04;92929.38;4973636;28;20034;-93
2021/08/15 05:05:13;;;;;;;3.45;2.20;;;;;;;20.17;69.82;92937.75;4988392;28;20047;-93
2021/08/15 05:07:44;;;;;;;3.88;1.75;;;;;;;20.16;70.08;92929.03;4963644;28;20088;-93
2021/08/15 05:10:12;;;;;;;4.47;2.42;;;;;;;20.20;70.40;92928.34;4977382;28;20054;-92
2021/08/15 05:12:41;;;;;;;4.20;2.60;;;;;;;20.26;70.59;92933.09;4977248;28;20060;-92
2021/08/15 05:15:20;;;;;;;4.93;2.47;;;;;;;20.33;70.32;92929.88;4993642;28;20056;-92
2021/08/15 05:17:58;;;;;;;3.65;2.10;;;;;;;20.39;70.12;92931.19;4978419;28;20145;-92
2021/08/15 05:20:38;;;;;;;4.85;2.08;;;;;;;20.51;69.93;92936.50;4988250;28;20043;-93
2021/08/15 05:23:17;;;;;;;4.38;2.13;;;;;;;20.61;69.82;92934.50;4960774;28;20510;-93
2021/08/15 05:25:53;;;;;;;3.60;2.05;;;;;;;20.74;69.25;92936.00;4973447;28;20061;-92
2021/08/15 05:28:24;;;;;;;4.38;2.35;;;;;;;20.85;69.06;92939.75;4977609;28;20495;-93
2021/08/15 05:31:05;;;;;;;2.73;1.67;;;;;;;20.91;68.81;92927.72;4976245;28;20047;-94
2021/08/15 05:33:50;;;;;;;3.15;2.00;;;;;;;21.03;68.67;92926.13;4976721;28;20050;-92
2021/08/15 05:36:32;;;;;;;4.05;2.60;;;;;;;21.22;68.62;92934.22;4961986;28;20042;-93
2021/08/15 05:39:29;;;;;;;2.88;1.85;;;;;;;21.32;68.43;92931.09;4991870;28;20498;-92
2021/08/15 05:42:14;;;;;;;4.22;2.22;;;;;;;21.46;68.21;92932.56;4977291;28;20097;-93
2021/08/15 05:44:55;;;;;;;3.53;2.08;;;;;;;21.55;68.21;92935.84;4963394;28;20456;-92
2021/08/15 05:48:09;;;;;;;;;;;;;;;;;;;;;
2021/08/15 05:51:11;;;;;;;;;;;;;;;;;;;;;
2021/08/15 05:53:51;;;;;;;3.45;2.08;;;;;;;22.16;67.39;92938.03;4989801;28;20035;-93
2021/08/15 05:56:38;;;;;;;;;;;;;;;;;;;;;
2021/08/15 05:59:34;;;;;;;3.72;2.15;;;;;;;22.47;66.62;92930.31;4993942;28;20044;-93
2021/08/15 06:02:06;;;;;;;5.45;2.92;;;;;;;22.69;66.56;92934.19;4990733;28;20056;-94
2021/08/15 06:04:40;;;;;;;7.22;3.28;;;;;;;22.91;65.55;92938.81;4975949;28;20137;-91
2021/08/15 06:07:46;;;;;;;7.05;2.55;;;;;;;23.14;65.00;92940.81;4963186;28;20061;-92
2021/08/15 06:13:59;;;;;;;5.82;2.80;;;;;;;23.64;61.67;92936.31;4989577;28;20133;-91
2021/08/15 06:18:24;;;;;;;4.47;2.38;;;;;;;24.46;61.46;92936.81;4965771;28;20091;-92
2021/08/15 06:25:19;;;;;;;4.25;2.88;;;;;;;30.88;44.22;92935.84;5000282;23;20049;-80
2021/08/15 06:27:44;;;;;;;4.78;2.83;;;;;;;31.51;43.39;92923.88;5007010;28;20092;-81
2021/08/15 06:33:32;;;;;;;5.25;2.70;;;;;;;33.10;39.30;92933.63;4992573;28;20409;-81
2021/08/15 06:36:37;;;;;;;4.35;2.83;;;;;;;34.02;36.89;92932.81;4988447;28;20072;-79
2021/08/15 06:39:05;;;;;;;4.38;2.90;;;;;;;34.91;35.65;92927.13;4984015;28;20043;-79
2021/08/15 06:41:32;;;;;;;5.13;3.17;;;;;;;35.76;34.72;92928.63;4971924;28;20049;-80
2021/08/15 06:43:57;;;;;;;9.43;3.53;;;;;;;36.38;33.52;92922.00;4988450;28;20046;-81
2021/08/15 06:46:23;;;;;;;9.00;2.90;;;;;;;36.78;32.37;92916.78;4987742;28;20074;-80
2021/08/15 06:48:49;;;;;;;6.00;3.42;;;;;;;36.19;33.01;92910.19;4969734;28;20115;-79
2021/08/15 06:51:16;;;;;;;5.53;3.03;;;;;;;36.24;33.33;92921.28;4980520;28;20584;-80
2021/08/15 06:53:42;;;;;;;5.28;3.00;;;;;;;34.80;36.23;92910.34;4977332;28;20126;-81
2021/08/15 06:56:27;;;;;;;5.28;3.30;;;;;;;34.14;37.95;92915.88;4971031;28;20125;-80
2021/08/15 06:58:53;;;;;;;4.78;3.05;;;;;;;33.79;37.83;92912.78;4971505;28;20412;-81
2021/08/15 07:01:18;;;;;;;5.20;3.15;;;;;;;34.51;37.24;92908.34;4996197;28;20042;-80
2021/08/15 07:03:44;;;;;;;5.75;3.45;;;;;;;32.71;41.79;92905.34;4987498;28;20045;-79
2021/08/15 07:06:11;;;;;;;5.60;3.30;;;;;;;31.84;43.96;92910.63;4971230;28;20046;-80
2021/08/15 07:08:37;;;;;;;6.05;3.10;;;;;;;30.62;45.86;92914.88;4990407;28;20061;-80
2021/08/15 07:11:02;;;;;;;6.22;3.10;;;;;;;29.92;48.70;92910.50;4988857;28;20049;-80
2021/08/15 07:13:28;;;;;;;6.53;3.42;;;;;;;29.24;49.58;92913.63;4990460;28;20602;-80
2021/08/15 07:15:54;;;;;;;5.90;3.03;;;;;;;28.91;50.90;92918.38;4989303;28;20046;-81
2021/08/15 07:18:20;;;;;;;7.70;3.28;;;;;;;28.29;52.00;92911.59;4986608;28;20062;-81
2021/08/15 07:21:05;;;;;;;7.32;3.08;;;;;;;27.89;53.65;92908.16;4980224;28;20043;-78
2021/08/15 07:23:30;;;;;;;6.03;3.08;;;;;;;27.86;52.60;92903.56;4990577;28;20080;-79
2021/08/15 07:25:56;;;;;;;5.53;3.08;;;;;;;27.50;53.83;92906.22;4992060;28;20121;-80
2021/08/15 07:28:21;;;;;;;8.90;3.10;;;;;;;27.33;56.12;92907.72;4976031;28;20070;-82
2021/08/15 07:30:47;;;;;;;6.82;3.10;;;;;;;27.09;56.28;92905.69;4990747;28;20125;-81
2021/08/15 07:33:13;;;;;;;5.53;3.30;;;;;;;27.05;56.08;92913.78;4965845;28;20047;-81
2021/08/15 07:35:38;;;;;;;4.68;2.97;;;;;;;27.33;55.71;92906.94;4964303;28;20086;-81
2021/08/15 07:38:05;;;;;;;6.35;2.47;;;;;;;27.32;55.14;92913.50;4984325;28;20129;-80
2021/08/15 07:40:32;;;;;;;5.20;3.17;;;;;;;27.62;53.87;92905.81;4980874;28;20043;-81
2021/08/15 07:42:58;;;;;;;5.35;2.90;;;;;;;27.44;54.90;92907.72;4971007;28;20670;-80
2021/08/15 07:45:29;;;;;;;5.03;2.90;;;;;;;26.79;57.11;92910.25;4961298;28;20046;-80
2021/08/15 07:47:55;;;;;;;5.50;3.27;;;;;;;27.11;57.07;92912.25;4982006;28;20484;-81
2021/08/15 07:50:21;;;;;;;4.82;2.67;;;;;;;27.07;56.25;92905.34;4967370;28;20288;-81
2021/08/15 07:52:46;;;;;;;5.18;3.03;;;;;;;27.16;58.34;92911.88;4986179;28;20415;-81
2021/08/15 07:55:12;;;;;;;4.50;2.78;;;;;;;27.04;56.88;92912.22;4983860;28;20550;-83
2021/08/15 07:57:38;;;;;;;6.18;2.72;;;;;;;26.83;53.19;92912.16;4975478;28;20096;-82
2021/08/15 08:00:06;;;;;;;8.23;3.17;;;;;;;27.12;53.43;92913.78;4944332;28;20053;-82
2021/08/15 08:02:33;;;;;;;4.93;3.00;;;;;;;27.26;56.19;92917.69;4994329;28;20121;-83
2021/08/15 08:04:58;;;;;;;5.50;2.35;;;;;;;27.11;57.78;92923.00;4978584;28;20046;-82
2021/08/15 08:07:25;;;;;;;5.15;2.80;;;;;;;26.69;59.48;92924.38;4975268;28;20113;-82
2021/08/15 08:09:52;;;;;;;4.95;2.80;;;;;;;27.14;58.16;92918.78;4992616;28;20026;-82
2021/08/15 08:12:19;;;;;;;7.68;2.90;;;;;;;27.24;56.83;92919.97;4983632;28;20052;-81
2021/08/15 08:14:46;;;;;;;6.93;2.80;;;;;;;27.15;54.26;92912.25;4990527;28;20034;-83
2021/08/15 08:17:13;;;;;;;4.22;2.65;;;;;;;26.96;59.09;92921.41;4962656;28;20047;-82
2021/08/15 08:19:39;;;;;;;4.20;2.40;;;;;;;27.02;58.40;92925.28;4980276;28;20520;-82
2021/08/15 08:22:05;;;;;;;5.00;2.97;;;;;;;27.03;57.81;92921.44;4986993;28;20086;-81
2021/08/15 08:24:31;;;;;;;4.80;2.50;;;;;;;27.23;54.89;92916.53;4959633;28;20102;-82
2021/08/15 08:26:57;;;;;;;9.02;2.95;;;;;;;27.69;48.88;92921.19;4957128;28;20063;-82
2021/08/15 08:29:23;;;;;;;5.13;2.88;;;;;;;27.58;54.01;92918.53;4965398;28;20461;-82
2021/08/15 08:31:49;;;;;;;3.90;2.50;;;;;;;26.57;58.97;92922.03;4968347;28;20034;-82
2021/08/15 08:34:14;;;;;;;4.47;2.95;;;;;;;26.19;59.55;92924.06;4949522;28;20048;-81
2021/08/15 08:36:40;;;;;;;5.70;3.05;;;;;;;26.69;58.88;92919.00;4949903;28;20051;-82
2021/08/15 08:39:06;;;;;;;7.00;2.70;;;;;;;26.80;56.95;92921.75;4949352;29;20138;-82
2021/08/15 08:41:33;;;;;;;4.95;2.83;;;;;;;26.95;57.96;92919.88;4954917;29;20493;-82
2021/08/15 08:43:58;;;;;;;5.53;3.10;;;;;;;27.01;53.83;92912.97;4940643;28;20043;-80
2021/08/15 08:46:25;;;;;;;5.20;2.60;;;;;;;27.10;51.97;92921.44;4960031;28;20047;-78
2021/08/15 08:48:51;;;;;;;5.72;2.45;;;;;;;27.12;55.64;92924.53;4955174;28;20480;-76
2021/08/15 08:51:21;;;;;;;6.53;3.15;;;;;;;26.73;56.33;92921.72;4939001;28;20118;-76
2021/08/15 08:53:51;;;;;;;6.80;2.70;;;;;;;27.09;54.95;92919.94;4953990;28;20409;-77
2021/08/15 08:56:18;;;;;;;7.15;2.70;;;;;;;27.22;52.27;92916.91;4975584;28;20042;-77
2021/08/15 08:58:44;;;;;;;10.85;3.30;;;;;;;27.56;51.93;92926.19;4935149;28;20035;-76
2021/08/15 09:01:13;;;;;;;5.55;2.78;;;;;;;27.81;53.20;92920.84;4949879;28;20441;-77
2021/08/15 09:03:43;;;;;;;7.90;2.45;;;;;;;27.57;53.35;92916.22;4953782;28;20121;-77
2021/08/15 09:06:24;;;;;;;5.85;2.67;;;;;;;27.52;53.29;92920.03;4956895;28;20047;-77
2021/08/15 09:08:51;;;;;;;4.32;2.42;;;;;;;27.57;52.67;92925.03;4955332;28;20035;-77
2021/08/15 09:11:25;;;;;;;4.78;2.97;;;;;;;27.07;54.43;92922.22;4953541;28;20077;-77
2021/08/15 09:14:04;;;;;;;4.03;2.60;;;;;;;26.99;56.03;92920.66;4964956;28;20053;-78
2021/08/15 09:17:01;;;;;;;7.28;3.17;;;;;;;27.56;51.04;92910.06;4964556;28;20039;-77
2021/08/15 09:19:26;;;;;;;4.30;2.83;;;;;;;27.59;50.72;92914.66;4961439;28;20039;-77
2021/08/15 09:21:55;;;;;;;3.95;2.25;;;;;;;27.77;51.08;92916.59;4964823;28;20046;-77
2021/08/15 09:24:21;;;;;;;5.60;3.28;;;;;;;27.53;52.73;92910.81;4949727;28;20460;-77
2021/08/15 09:26:57;;;;;;;5.32;3.40;;;;;;;27.78;51.00;92905.44;4974512;28;20073;-77
2021/08/15 09:29:22;;;;;;;6.50;2.30;;;;;;;27.66;49.50;92921.22;4953489;28;20054;-77
2021/08/15 09:31:48;;;;;;;4.20;2.25;;;;;;;27.47;50.05;92911.56;4945705;28;20038;-77
2021/08/15 09:34:28;;;;;;;8.15;3.22;;;;;;;27.67;49.52;92914.66;4939304;28;20127;-78
2021/08/15 09:36:55;;;;;;;4.88;2.83;;;;;;;27.50;53.91;92910.81;4969974;28;20047;-78
2021/08/15 09:39:35;;;;;;;5.68;2.70;;;;;;;27.80;53.44;92918.53;4972242;28;20046;-78
2021/08/15 09:42:01;;;;;;;2.92;1.92;;;;;;;27.57;52.74;92914.28;4958635;28;20045;-78
2021/08/15 09:44:29;;;;;;;8.90;3.15;;;;;;;27.90;53.93;92912.41;4955456;28;20042;-78
2021/08/15 09:47:01;;;;;;;5.40;2.95;;;;;;;27.66;53.49;92913.91;4948281;28;20077;-78
2021/08/15 09:49:46;;;;;;;6.85;3.13;;;;;;;27.82;52.64;92911.59;4966694;28;20500;-78
2021/08/15 09:52:17;;;;;;;4.85;3.03;;;;;;;28.02;53.15;92906.63;4970581;28;20041;-78
2021/08/15 09:54:59;;;;;;;6.50;2.97;;;;;;;27.59;54.84;92903.91;4949992;28;20043;-78
2021/08/15 09:57:46;;;;;;;4.70;2.53;;;;;;;27.75;54.47;92900.09;4954920;28;20548;-78
2021/08/15 10:00:22;;;;;;;7.97;2.80;;;;;;;27.75;53.78;92905.47;4951585;28;20063;-77
2021/08/15 10:02:48;;;;;;;5.50;2.70;;;;;;;27.49;55.01;92899.28;4974898;28;20039;-77
2021/08/15 10:05:14;;;;;;;6.93;3.17;;;;;;;27.65;54.21;92900.84;4958270;28;20390;-78
2021/08/15 10:07:42;;;;;;;4.80;2.58;;;;;;;27.03;56.29;92899.94;4939497;28;20046;-78
2021/08/15 10:10:12;;;;;;;3.83;2.28;;;;;;;27.74;56.16;92898.53;4972323;28;20101;-78
2021/08/15 10:12:37;;;;;;;3.95;2.63;;;;;;;27.54;55.83;92900.84;4968675;28;20046;-78
2021/08/15 10:15:05;;;;;;;6.00;3.17;;;;;;;27.47;55.23;92898.94;4956343;28;20042;-77
2021/08/15 10:17:32;;;;;;;11.88;3.25;;;;;;;27.30;55.39;92892.34;4969425;28;20520;-77
2021/08/15 10:20:03;;;;;;;6.25;2.92;;;;;;;27.35;55.22;92889.28;4941645;28;20405;-76
2021/08/15 10:22:34;;;;;;;5.30;3.03;;;;;;;27.18;56.66;92888.09;4970833;28;20066;-78
2021/08/15 10:25:04;;;;;;;4.03;2.50;;;;;;;27.47;55.23;92890.84;4968517;28;20066;-78
2021/08/15 10:27:38;;;;;;;5.20;2.90;;;;;;;27.58;54.20;92888.16;4970921;28;20039;-78
2021/08/15 10:30:27;;;;;;;6.03;3.08;;;;;;;27.73;53.28;92880.88;4968083;28;20043;-78
2021/08/15 10:32:56;;;;;;;5.38;2.78;;;;;;;27.60;53.59;92883.94;4946206;28;20139;-78
2021/08/15 10:35:29;;;;;;;4.85;2.78;;;;;;;27.61;53.05;92880.09;4953573;28;20070;-78
2021/08/15 10:37:59;;;;;;;8.07;3.25;;;;;;;27.73;53.60;92870.13;4966897;28;20226;-79
2021/08/15 10:40:41;;;;;;;6.25;3.15;;;;;;;27.83;54.37;92874.72;4952678;28;20047;-78
2021/08/15 10:43:07;;;;;;;5.17;3.27;;;;;;;27.78;53.77;92867.78;4974202;28;20042;-77
2021/08/15 10:45:33;;;;;;;4.40;2.60;;;;;;;27.89;53.66;92872.44;4947854;28;20212;-77
2021/08/15 10:48:04;;;;;;;8.25;3.35;;;;;;;27.86;54.07;92868.59;4969411;28;20054;-77
2021/08/15 10:50:47;;;;;;;;;;;;;;;27.89;53.10;92865.13;4968569;28;20118;-78
2021/08/15 10:55:54;;;;;;;5.05;3.28;;;;;;;27.26;56.34;92859.31;4962490;28;20031;-77
2021/08/15 10:58:42;;;;;;;5.55;3.25;;;;;;;27.80;55.12;92854.72;4968936;28;20039;-78
2021/08/15 11:01:16;;;;;;;7.95;3.40;;;;;;;27.57;55.81;92849.00;4965215;28;20042;-78
2021/08/15 11:03:47;;;;;;;6.80;3.30;;;;;;;27.82;55.67;92849.75;4956538;28;20049;-78
2021/08/15 11:06:31;;;;;;;3.88;2.70;;;;;;;28.22;55.53;92849.72;4966548;28;20070;-78
2021/08/15 11:09:08;;;;;;;6.70;2.97;;;;;;;27.93;54.63;92847.06;4963139;28;20449;-78
2021/08/15 11:11:36;;;;;;;7.15;3.65;;;;;;;27.68;55.66;92841.69;4965754;28;20039;-77
2021/08/15 11:14:17;;;;;;;7.20;3.42;;;;;;;28.09;53.99;92838.59;4963093;28;20035;-77
2021/08/15 11:17:01;;;;;;;5.10;3.28;;;;;;;28.11;55.72;92840.91;4971621;28;20091;-77
2021/08/15 11:19:28;;;;;;;6.60;3.22;;;;;;;27.94;55.24;92837.84;4960883;28;20165;-78
2021/08/15 11:22:07;;;;;;;6.10;3.92;;;;;;;28.21;54.30;92832.81;4944582;28;20055;-79
2021/08/15 11:24:55;;;;;;;6.18;3.60;;;;;;;28.42;55.73;92839.28;4971311;28;20109;-78
2021/08/15 11:27:30;;;;;;;6.97;3.25;;;;;;;28.63;54.52;92833.06;4983368;28;20121;-78
2021/08/15 11:29:57;;;;;;;8.63;3.60;;;;;;;28.08;54.53;92831.69;4988149;28;20101;-79
2021/08/15 11:32:28;;;;;;;7.07;3.85;;;;;;;28.51;55.11;92836.19;4989805;28;20038;-78
2021/08/15 11:34:54;;;;;;;7.75;3.95;;;;;;;28.08;57.07;92828.19;4988728;28;20400;-78
2021/08/15 11:37:25;;;;;;;6.10;3.92;;;;;;;27.77;56.58;92827.84;4987386;28;20092;-78
2021/08/15 11:39:51;;;;;;;5.65;3.42;;;;;;;28.01;57.00;92826.28;4988387;28;20129;-78
2021/08/15 11:42:23;;;;;;;8.52;3.67;;;;;;;28.03;56.09;92824.78;4976662;28;20049;-79
2021/08/15 11:45:00;;;;;;;5.80;3.70;;;;;;;28.07;54.41;92824.75;4984539;28;20539;-77
2021/08/15 11:47:30;;;;;;;6.20;3.70;;;;;;;28.08;56.52;92826.31;4977103;28;20232;-78
2021/08/15 11:50:17;;;;;;;5.85;3.15;;;;;;;28.01;55.71;92819.00;4986463;28;20411;-78
2021/08/15 11:52:42;;;;;;;5.03;3.25;;;;;;;28.10;55.44;92820.50;4983902;28;20493;-77
2021/08/15 11:55:18;;;;;;;7.30;3.13;;;;;;;28.30;53.15;92813.53;4989454;28;20042;-77
2021/08/15 11:58:02;;;;;;;6.05;3.28;;;;;;;28.55;54.26;92816.19;4966388;28;20117;-78
2021/08/15 12:00:32;;;;;;;6.80;3.00;;;;;;;28.62;53.75;92813.44;4982730;28;20109;-78
2021/08/15 12:03:08;;;;;;;8.23;4.03;;;;;;;27.94;54.47;92810.94;4996814;28;20093;-79
2021/08/15 12:05:36;;;;;;;7.93;3.65;;;;;;;27.96;52.78;92808.63;4990243;28;20077;-79
2021/08/15 12:08:04;;;;;;;7.28;3.42;;;;;;;28.13;54.89;92815.13;4989835;28;20049;-80
2021/08/15 12:10:34;;;;;;;6.53;3.50;;;;;;;27.96;53.30;92813.25;4970884;28;20132;-79
2021/08/15 12:13:11;;;;;;;6.10;3.85;;;;;;;28.30;53.89;92815.47;4986967;28;20049;-79
2021/08/15 12:15:37;;;;;;;7.30;4.20;;;;;;;28.63;51.58;92811.53;4992143;28;20121;-77
2021/08/15 12:18:03;;;;;;;5.35;3.30;;;;;;;29.04;52.11;92810.91;4968445;28;20074;-77
2021/08/15 12:20:44;;;;;;;7.70;3.65;;;;;;;28.84;52.04;92811.44;4982887;28;20428;-78
2021/08/15 12:23:10;;;;;;;5.47;3.75;;;;;;;28.65;51.43;92809.97;4968222;28;20050;-79
2021/08/15 12:25:36;;;;;;;7.05;3.75;;;;;;;28.78;51.70;92802.22;4970117;28;20205;-79
2021/08/15 12:28:12;;;;;;;7.47;3.75;;;;;;;28.78;52.75;92804.91;4977575;28;20121;-79
2021/08/15 12:30:39;;;;;;;6.25;3.25;;;;;;;28.90;50.06;92803.69;4993295;28;20038;-79
2021/08/15 12:33:24;;;;;;;9.80;3.20;;;;;;;28.65;49.68;92809.97;4989326;28;20067;-79
2021/08/15 12:35:51;;;;;;;4.65;3.10;;;;;;;28.58;50.92;92809.25;4994823;28;20081;-76
2021/08/15 12:38:30;;;;;;;8.48;3.53;;;;;;;29.11;49.68;92802.03;4990387;28;20034;-76
2021/08/15 12:41:16;;;;;;;6.93;3.53;;;;;;;28.75;51.73;92804.91;4989924;28;20126;-77
2021/08/15 12:43:41;;;;;;;5.03;2.97;;;;;;;28.30;50.28;92799.31;4980750;28;20080;-78
2021/08/15 12:46:21;;;;;;;6.63;3.22;;;;;;;29.09;49.96;92805.13;4995051;28;20101;-79
2021/08/15 12:48:47;;;;;;;6.38;3.83;;;;;;;29.07;50.17;92796.66;4991766;28;20042;-77
2021/08/15 12:51:20;;;;;;;8.05;3.45;;;;;;;29.18;49.38;92800.09;4986492;28;20034;-77
2021/08/15 12:53:46;;;;;;;7.15;3.85;;;;;;;29.27;49.63;92789.63;4963409;28;20408;-77